Time;durP1;ratioP1;P1;durP2;ratioP2;P2;SDS_P1;SDS_P2;PMS_P1;PMS_P2;Temp;Humidity;BMP_temperature;BMP_pressure;BME280_temperature;BME280_humidity;BME280_pressure;Samples;Min_cycle;Max_cycle;Signal;HPM_P1;HPM_P2
2023/08/25 00:02:46;;;;;;;2.60;2.10;;;23.60;41.70;;;;;;10447734;28;20241;-71
2023/08/25 00:07:49;;;;;;;2.83;2.20;;;23.70;40.80;;;;;;10447261;28;20232;-72
2023/08/25 00:12:54;;;;;;;5.07;2.33;;;23.70;40.90;;;;;;10446753;28;20252;-72
2023/08/25 00:17:58;;;;;;;4.23;2.30;;;23.70;41.90;;;;;;10445904;28;20233;-72
2023/08/25 00:23:02;;;;;;;2.90;1.90;;;23.80;40.90;;;;;;10446718;28;20224;-71
2023/08/25 00:28:07;;;;;;;4.03;2.60;;;23.80;41.00;;;;;;10446512;28;20933;-72
2023/08/25 00:33:10;;;;;;;3.73;2.40;;;23.80;41.80;;;;;;10446120;28;20255;-72
2023/08/25 00:38:13;;;;;;;4.40;2.83;;;23.90;41.20;;;;;;10445293;28;20336;-72
2023/08/25 00:43:18;;;;;;;5.57;2.67;;;23.80;41.40;;;;;;10446273;28;20232;-71
2023/08/25 00:48:21;;;;;;;3.50;2.83;;;23.70;42.30;;;;;;10445597;28;20235;-72
2023/08/25 00:53:25;;;;;;;3.50;2.80;;;23.70;41.70;;;;;;10445529;28;20262;-70
2023/08/25 00:58:30;;;;;;;3.70;2.70;;;23.60;41.90;;;;;;10445104;28;20808;-72
2023/08/25 01:03:35;;;;;;;4.50;2.37;;;23.60;43.50;;;;;;10444796;28;20325;-72
2023/08/25 01:08:39;;;;;;;4.27;3.13;;;23.60;42.40;;;;;;10445050;28;20229;-72
2023/08/25 01:13:52;;;;;;;5.37;3.10;;;23.50;42.90;;;;;;10444650;28;20793;-72
2023/08/25 01:18:57;;;;;;;5.43;2.63;;;23.50;44.70;;;;;;10444439;28;20712;-71
2023/08/25 01:24:11;;;;;;;4.27;2.77;;;23.50;43.60;;;;;;10444474;28;20259;-72
2023/08/25 01:29:16;;;;;;;2.67;2.40;;;23.40;45.10;;;;;;10443875;28;20231;-71
2023/08/25 01:34:19;;;;;;;4.03;2.47;;;23.40;44.50;;;;;;10443902;28;20247;-72
2023/08/25 01:39:25;;;;;;;4.00;2.60;;;23.40;43.80;;;;;;10443765;28;20331;-72
2023/08/25 01:44:31;;;;;;;5.03;2.80;;;23.40;44.20;;;;;;10443935;28;20319;-72
2023/08/25 01:49:36;;;;;;;3.77;2.73;;;23.40;45.60;;;;;;10443804;28;20239;-71
2023/08/25 01:54:40;;;;;;;3.90;2.57;;;23.40;44.80;;;;;;10443531;28;20794;-71
2023/08/25 01:59:44;;;;;;;7.03;2.90;;;23.40;44.20;;;;;;10443376;28;20228;-72
2023/08/25 02:04:47;;;;;;;4.43;2.70;;;23.40;45.30;;;;;;10443110;28;20228;-72
2023/08/25 02:09:53;;;;;;;4.23;2.30;;;23.40;44.60;;;;;;10443578;28;20229;-72
2023/08/25 02:14:57;;;;;;;3.70;2.40;;;23.40;44.60;;;;;;10443050;28;20845;-71
2023/08/25 02:20:04;;;;;;;7.70;3.20;;;23.50;45.40;;;;;;10443072;28;20224;-72
2023/08/25 02:25:08;;;;;;;3.63;2.53;;;23.50;45.30;;;;;;10443180;28;20298;-72
2023/08/25 02:30:13;;;;;;;3.33;2.53;;;23.50;44.80;;;;;;10442500;28;20255;-71
2023/08/25 02:35:17;;;;;;;3.73;2.47;;;23.50;46.00;;;;;;10442740;28;20233;-72
2023/08/25 02:40:20;;;;;;;4.03;2.43;;;23.40;44.90;;;;;;10447109;28;20237;-72
2023/08/25 02:45:25;;;;;;;4.67;2.33;;;23.40;45.00;;;;;;10450109;28;20237;-72
2023/08/25 02:50:28;;;;;;;4.47;2.70;;;23.40;45.90;;;;;;10450372;28;20312;-72
2023/08/25 02:55:31;;;;;;;2.87;2.53;;;23.40;45.10;;;;;;10449965;28;20232;-71
2023/08/25 03:00:36;;;;;;;2.27;2.07;;;23.40;45.00;;;;;;10449751;28;20279;-72
2023/08/25 03:05:39;;;;;;;4.13;2.37;;;23.40;46.00;;;;;;10449960;28;20631;-72
2023/08/25 03:10:44;;;;;;;4.13;2.70;;;23.40;45.20;;;;;;10449382;28;20229;-71
2023/08/25 03:15:50;;;;;;;4.97;2.30;;;23.40;45.60;;;;;;10448895;28;20812;-72
2023/08/25 03:20:54;;;;;;;5.57;2.30;;;23.50;46.00;;;;;;10449343;28;20618;-72
2023/08/25 03:25:57;;;;;;;2.80;2.20;;;23.40;45.00;;;;;;10449188;28;20233;-72
2023/08/25 03:31:02;;;;;;;7.77;2.30;;;23.50;45.80;;;;;;10448787;28;20740;-72
2023/08/25 03:36:06;;;;;;;4.53;2.33;;;23.50;45.80;;;;;;10448422;28;20233;-72
2023/08/25 03:41:09;;;;;;;4.20;2.50;;;23.40;45.10;;;;;;10448752;28;20259;-72
2023/08/25 03:46:13;;;;;;;3.23;2.63;;;23.50;45.10;;;;;;10448153;28;20233;-72
2023/08/25 03:51:17;;;;;;;2.50;2.13;;;23.60;45.90;;;;;;10447635;28;20229;-72
2023/08/25 03:56:20;;;;;;;3.23;2.40;;;23.60;45.10;;;;;;10447943;28;20236;-72
2023/08/25 04:01:25;;;;;;;2.87;2.30;;;23.70;44.60;;;;;;10447696;28;20307;-72
2023/08/25 04:06:28;;;;;;;4.80;2.50;;;23.80;46.00;;;;;;10447756;28;20229;-72
2023/08/25 04:11:32;;;;;;;3.53;2.47;;;23.80;44.70;;;;;;10447679;28;20232;-72
2023/08/25 04:16:36;;;;;;;2.37;2.03;;;23.80;44.70;;;;;;10447028;28;20231;-71
2023/08/25 04:21:40;;;;;;;4.00;2.50;;;23.90;45.30;;;;;;10447077;28;20235;-71
2023/08/25 04:26:43;;;;;;;3.83;2.40;;;23.90;44.40;;;;;;10447105;28;20231;-72
2023/08/25 04:31:48;;;;;;;5.23;2.57;;;24.00;44.40;;;;;;10446561;28;20610;-71
2023/08/25 04:36:51;;;;;;;2.40;2.07;;;24.00;44.90;;;;;;10446353;28;20600;-72
2023/08/25 04:41:55;;;;;;;4.30;2.80;;;23.90;45.00;;;;;;10446186;28;20593;-71
2023/08/25 04:47:00;;;;;;;3.70;2.50;;;23.90;44.50;;;;;;10445906;28;20233;-71
2023/08/25 04:52:03;;;;;;;3.20;2.77;;;23.90;45.00;;;;;;10445703;28;20780;-72
2023/08/25 04:57:06;;;;;;;3.80;2.83;;;23.90;44.50;;;;;;10445318;28;20240;-72
2023/08/25 05:02:11;;;;;;;2.87;2.67;;;23.90;44.50;;;;;;10444678;28;20398;-72
2023/08/25 05:07:14;;;;;;;5.70;2.90;;;23.90;45.30;;;;;;10445229;28;20237;-71
2023/08/25 05:12:18;;;;;;;3.50;2.83;;;23.90;44.80;;;;;;10445034;28;20224;-72
2023/08/25 05:17:22;;;;;;;2.87;2.60;;;23.90;44.70;;;;;;10444864;28;20233;-72
2023/08/25 05:22:25;;;;;;;3.23;2.70;;;23.90;45.30;;;;;;10444680;28;20225;-72
2023/08/25 05:27:28;;;;;;;2.73;2.53;;;23.90;44.80;;;;;;10444580;28;20239;-71
2023/08/25 05:32:33;;;;;;;3.40;3.10;;;23.90;45.00;;;;;;10444424;28;20786;-72
2023/08/25 05:37:37;;;;;;;4.07;3.43;;;23.90;45.60;;;;;;10443943;28;20720;-71
2023/08/25 05:42:40;;;;;;;4.00;3.60;;;24.00;45.40;;;;;;10444304;28;20613;-72
2023/08/25 05:47:44;;;;;;;4.87;3.10;;;24.00;45.30;;;;;;10443928;28;20832;-72
2023/08/25 05:52:48;;;;;;;4.53;3.10;;;24.00;45.80;;;;;;10444020;28;20225;-72
2023/08/25 05:57:51;;;;;;;3.27;3.07;;;24.00;45.30;;;;;;10443707;28;20237;-71
2023/08/25 06:02:56;;;;;;;3.70;3.40;;;24.00;45.10;;;;;;10443401;28;20783;-72
2023/08/25 06:08:00;;;;;;;3.47;3.00;;;24.10;45.80;;;;;;10443448;28;20229;-72
2023/08/25 06:13:03;;;;;;;3.63;3.33;;;24.10;45.50;;;;;;10444122;28;20232;-72
2023/08/25 06:18:07;;;;;;;6.00;3.47;;;24.10;45.60;;;;;;10451336;28;20783;-71
2023/08/25 06:23:13;;;;;;;8.03;3.60;;;24.20;46.20;;;;;;10451989;28;20646;-72
2023/08/25 06:28:16;;;;;;;3.53;3.23;;;24.20;45.90;;;;;;10451580;28;20232;-71
2023/08/25 06:33:21;;;;;;;5.00;3.60;;;24.30;46.00;;;;;;10451311;28;20324;-72
2023/08/25 06:38:24;;;;;;;3.67;3.37;;;24.30;46.60;;;;;;10450999;28;20315;-72
2023/08/25 06:43:27;;;;;;;4.23;3.93;;;24.30;46.00;;;;;;10450895;28;20608;-72
2023/08/25 06:48:32;;;;;;;4.63;3.80;;;24.30;46.10;;;;;;10450481;28;20231;-72
2023/08/25 06:53:35;;;;;;;4.07;3.70;;;24.40;46.60;;;;;;10450483;28;20217;-72
2023/08/25 06:58:38;;;;;;;4.37;4.07;;;24.40;46.20;;;;;;10450281;28;20225;-72
2023/08/25 07:03:43;;;;;;;6.00;4.10;;;24.50;46.60;;;;;;10450134;28;20227;-72
2023/08/25 07:08:46;;;;;;;4.67;3.83;;;24.50;47.30;;;;;;10449737;28;20233;-72
2023/08/25 07:13:49;;;;;;;3.60;3.30;;;24.60;46.80;;;;;;10449818;28;20232;-73
2023/08/25 07:18:54;;;;;;;3.70;3.40;;;24.70;46.80;;;;;;10449367;28;20229;-72
2023/08/25 07:23:57;;;;;;;3.00;2.80;;;24.70;47.00;;;;;;10448633;28;20220;-72
2023/08/25 07:29:00;;;;;;;3.00;2.80;;;24.90;46.70;;;;;;10449054;28;20312;-72
2023/08/25 07:34:05;;;;;;;3.37;3.07;;;25.00;46.20;;;;;;10448421;28;20255;-72
2023/08/25 07:39:08;;;;;;;3.40;3.10;;;25.10;47.20;;;;;;10448538;28;20316;-72
2023/08/25 07:44:11;;;;;;;3.47;2.87;;;25.30;46.50;;;;;;10448594;28;20252;-73
2023/08/25 07:49:16;;;;;;;3.07;2.73;;;25.50;46.00;;;;;;10448153;28;20256;-72
2023/08/25 07:54:19;;;;;;;3.30;2.70;;;25.60;46.00;;;;;;10448275;28;20224;-72
2023/08/25 07:59:23;;;;;;;3.30;3.00;;;25.80;45.60;;;;;;10448048;28;20590;-71
2023/08/25 08:04:30;;;;;;;3.23;2.60;;;26.00;45.40;;;;;;10444564;28;20242;-72
2023/08/25 08:09:33;;;;;;;3.10;2.80;;;26.10;45.70;;;;;;10437040;28;20236;-72
2023/08/25 08:14:37;;;;;;;3.93;2.70;;;26.40;45.40;;;;;;10445618;28;20240;-71
2023/08/25 08:19:50;;;;;;;3.90;2.33;;;26.60;44.80;;;;;;10445893;28;20248;-72
2023/08/25 08:24:53;;;;;;;2.90;2.70;;;26.80;43.70;;;;;;10442990;28;20225;-71
2023/08/25 08:29:57;;;;;;;3.73;2.60;;;26.90;43.80;;;;;;10446412;28;20225;-71
2023/08/25 08:35:03;;;;;;;3.43;2.67;;;27.10;43.90;;;;;;10446056;28;20236;-71
2023/08/25 08:40:09;;;;;;;3.43;3.13;;;27.20;43.60;;;;;;10445630;28;20282;-71
2023/08/25 08:45:12;;;;;;;3.30;3.00;;;27.40;42.70;;;;;;10446190;28;20236;-71
2023/08/25 08:50:18;;;;;;;3.23;2.93;;;27.40;43.00;;;;;;10445994;28;20252;-71
2023/08/25 08:55:22;;;;;;;2.70;2.50;;;27.50;42.60;;;;;;10445457;28;20229;-71
2023/08/25 09:00:25;;;;;;;3.00;2.63;;;27.50;41.90;;;;;;10426003;28;20249;-71
2023/08/25 09:05:30;;;;;;;3.83;2.90;;;27.50;42.60;;;;;;10404420;28;20790;-70
2023/08/25 09:10:33;;;;;;;2.83;2.60;;;27.40;40.80;;;;;;10404129;28;20225;-71
2023/08/25 09:15:37;;;;;;;3.20;2.90;;;27.40;41.10;;;;;;10403547;28;20770;-71
2023/08/25 09:20:41;;;;;;;3.30;3.00;;;27.30;41.50;;;;;;10403117;28;20256;-72
2023/08/25 09:25:44;;;;;;;4.07;2.90;;;27.20;41.90;;;;;;10403075;28;20229;-71
2023/08/25 09:30:48;;;;;;;3.67;3.03;;;27.00;42.90;;;;;;10423447;28;20225;-71
2023/08/25 09:35:52;;;;;;;3.40;3.10;;;26.80;42.10;;;;;;10404952;28;20229;-72
2023/08/25 09:40:57;;;;;;;4.37;3.03;;;26.70;42.40;;;;;;10440144;28;20247;-71
2023/08/25 09:46:00;;;;;;;3.30;3.00;;;26.60;42.90;;;;;;10400618;28;20225;-71
2023/08/25 09:51:06;;;;;;;3.33;3.03;;;26.60;43.30;;;;;;10435461;28;20657;-71
2023/08/25 09:56:10;;;;;;;2.80;2.60;;;26.60;43.80;;;;;;10443980;28;20235;-72
2023/08/25 10:01:13;;;;;;;2.87;2.63;;;26.60;43.60;;;;;;10443508;28;20229;-71
2023/08/25 10:06:18;;;;;;;3.57;3.17;;;26.70;43.70;;;;;;10443818;28;20294;-72
2023/08/25 10:11:22;;;;;;;3.40;3.10;;;26.70;44.10;;;;;;10443448;28;20228;-72
2023/08/25 10:16:27;;;;;;;4.53;3.10;;;26.70;43.90;;;;;;10443527;28;20316;-72
2023/08/25 10:21:32;;;;;;;3.03;2.83;;;26.70;44.10;;;;;;10443709;28;20704;-72
2023/08/25 10:26:35;;;;;;;3.07;2.87;;;26.80;43.20;;;;;;10443388;28;20307;-71
2023/08/25 10:31:46;;;;;;;3.27;2.70;;;26.90;42.70;;;;;;10443193;28;20231;-71
2023/08/25 10:36:51;;;;;;;3.07;2.80;;;27.00;42.80;;;;;;10442964;28;20228;-72
2023/08/25 10:41:58;;;;;;;3.10;2.90;;;27.10;43.00;;;;;;10442934;28;20271;-71
2023/08/25 10:47:02;;;;;;;3.40;3.10;;;27.20;43.50;;;;;;10442686;28;20233;-72
2023/08/25 10:52:18;;;;;;;3.53;3.10;;;27.30;42.50;;;;;;10442621;28;20316;-71
2023/08/25 10:57:43;;;;;;;2.83;2.63;;;27.40;42.50;;;;;;10442637;28;20232;-71
2023/08/25 11:02:46;;;;;;;3.30;2.97;;;27.60;42.60;;;;;;10448764;28;20739;-71
2023/08/25 11:07:51;;;;;;;3.80;2.93;;;27.60;41.80;;;;;;10450070;28;20229;-71
2023/08/25 11:12:55;;;;;;;2.63;2.43;;;27.70;41.60;;;;;;10449616;28;20217;-71
2023/08/25 11:18:12;;;;;;;3.60;2.93;;;27.90;41.80;;;;;;10449457;28;20233;-71
2023/08/25 11:23:17;;;;;;;2.80;2.60;;;28.00;41.00;;;;;;10449587;28;20263;-71
2023/08/25 11:28:27;;;;;;;4.00;2.90;;;28.20;41.10;;;;;;10449650;28;20688;-71
2023/08/25 11:33:31;;;;;;;2.40;2.30;;;28.50;40.70;;;;;;10449170;28;20315;-71
2023/08/25 11:38:36;;;;;;;2.60;2.40;;;28.70;40.20;;;;;;10448793;28;20237;-71
2023/08/25 11:43:39;;;;;;;2.63;2.43;;;28.80;39.20;;;;;;10448615;28;20221;-71
2023/08/25 11:48:43;;;;;;;2.80;2.50;;;28.80;38.90;;;;;;10448320;28;20315;-70
2023/08/25 11:53:47;;;;;;;2.67;2.47;;;28.90;38.40;;;;;;10448593;28;20227;-71
2023/08/25 11:58:51;;;;;;;2.87;2.67;;;28.90;38.10;;;;;;10448085;28;20248;-71
2023/08/25 12:03:58;;;;;;;3.00;2.60;;;28.90;38.50;;;;;;10447691;28;20225;-71
2023/08/25 12:09:04;;;;;;;2.70;2.50;;;28.90;36.90;;;;;;10447762;28;20237;-71
2023/08/25 12:14:07;;;;;;;3.57;2.43;;;28.90;37.60;;;;;;10447640;28;20240;-71
2023/08/25 12:19:11;;;;;;;2.90;2.70;;;28.90;38.90;;;;;;10446932;28;20758;-71
2023/08/25 12:24:16;;;;;;;3.00;2.70;;;28.90;38.40;;;;;;10447520;28;20239;-71
2023/08/25 12:29:21;;;;;;;2.80;2.60;;;29.00;37.60;;;;;;10446707;28;20317;-71
2023/08/25 12:34:24;;;;;;;2.93;2.73;;;29.20;37.70;;;;;;10446904;28;20235;-70
2023/08/25 12:39:29;;;;;;;2.90;2.70;;;29.30;37.40;;;;;;10445853;28;20290;-71
2023/08/25 12:44:32;;;;;;;2.57;2.40;;;29.40;37.30;;;;;;10445876;28;20298;-71
2023/08/25 12:49:35;;;;;;;2.57;2.37;;;29.40;37.20;;;;;;10446249;28;20220;-71
2023/08/25 12:54:40;;;;;;;2.83;2.63;;;29.50;37.00;;;;;;10445705;28;20231;-71
2023/08/25 12:59:43;;;;;;;2.77;2.50;;;29.60;36.30;;;;;;10445529;28;20758;-71
2023/08/25 13:04:46;;;;;;;2.83;2.60;;;29.70;36.90;;;;;;10445712;28;20229;-71
2023/08/25 13:09:51;;;;;;;2.97;2.67;;;29.80;36.60;;;;;;10445484;28;20275;-71
2023/08/25 13:14:54;;;;;;;2.50;2.30;;;29.90;35.50;;;;;;10445095;28;20228;-71
2023/08/25 13:19:57;;;;;;;2.60;2.40;;;30.00;35.50;;;;;;10445161;28;20312;-71
2023/08/25 13:25:02;;;;;;;2.10;2.00;;;30.00;34.80;;;;;;10444664;28;20675;-71
2023/08/25 13:30:09;;;;;;;2.40;2.30;;;30.10;34.10;;;;;;10444550;28;20231;-71
2023/08/25 13:35:13;;;;;;;2.63;2.20;;;30.20;34.00;;;;;;10444591;28;20229;-71
2023/08/25 13:40:17;;;;;;;2.20;2.00;;;30.10;34.80;;;;;;10444541;28;20232;-71
2023/08/25 13:45:21;;;;;;;2.33;2.13;;;30.10;34.70;;;;;;10444383;28;20242;-71
2023/08/25 13:50:24;;;;;;;2.23;2.13;;;30.10;34.50;;;;;;10444440;28;20587;-71
2023/08/25 13:55:28;;;;;;;2.20;2.10;;;30.20;34.50;;;;;;10444277;28;20228;-71
2023/08/25 14:00:32;;;;;;;2.30;2.10;;;30.20;34.00;;;;;;10444026;28;20228;-70
2023/08/25 14:05:35;;;;;;;2.57;2.37;;;30.20;34.20;;;;;;10443722;28;20295;-70
2023/08/25 14:10:40;;;;;;;3.10;2.40;;;30.20;34.00;;;;;;10443939;28;20275;-71
2023/08/25 14:15:43;;;;;;;2.47;2.27;;;30.20;33.50;;;;;;10443479;28;20232;-71
2023/08/25 14:20:47;;;;;;;2.70;2.50;;;30.10;34.60;;;;;;10443864;28;20312;-71
2023/08/25 14:25:51;;;;;;;2.70;2.50;;;30.00;34.10;;;;;;10443824;28;20228;-71
2023/08/25 14:30:55;;;;;;;2.70;2.50;;;30.00;33.80;;;;;;10443359;28;20229;-71
2023/08/25 14:35:58;;;;;;;2.70;2.50;;;29.90;34.40;;;;;;10447081;28;20236;-71
2023/08/25 14:41:06;;;;;;;2.83;2.53;;;29.90;34.20;;;;;;10450996;28;20227;-71
2023/08/25 14:46:10;;;;;;;2.80;2.60;;;29.90;34.10;;;;;;10450852;28;20248;-70
2023/08/25 14:51:15;;;;;;;2.63;2.43;;;29.90;34.40;;;;;;10450764;28;20229;-71
2023/08/25 14:56:20;;;;;;;2.40;2.20;;;29.80;34.00;;;;;;10450651;28;20385;-71
2023/08/25 15:01:23;;;;;;;2.53;2.43;;;29.80;33.90;;;;;;10450395;28;20697;-71
2023/08/25 15:06:26;;;;;;;2.80;2.60;;;29.80;34.10;;;;;;10450134;28;20235;-71
2023/08/25 15:11:31;;;;;;;2.40;2.20;;;29.80;34.10;;;;;;10450082;28;20256;-71
2023/08/25 15:16:34;;;;;;;2.93;2.30;;;29.80;33.40;;;;;;10449802;28;20297;-71
2023/08/25 15:21:37;;;;;;;2.63;2.40;;;29.80;33.80;;;;;;10449733;28;20237;-71
2023/08/25 15:26:42;;;;;;;2.70;2.50;;;29.80;33.70;;;;;;10449648;28;20595;-71
2023/08/25 15:31:45;;;;;;;3.03;2.83;;;29.80;33.40;;;;;;10449119;28;20233;-70
2023/08/25 15:36:48;;;;;;;2.60;2.30;;;29.70;34.00;;;;;;10449224;28;20225;-71
2023/08/25 15:41:53;;;;;;;3.50;2.50;;;29.60;34.10;;;;;;10448949;28;20251;-71
2023/08/25 15:46:57;;;;;;;2.77;2.57;;;29.60;34.40;;;;;;10447987;28;20682;-71
2023/08/25 15:52:00;;;;;;;2.73;2.50;;;29.60;34.40;;;;;;10448693;28;20233;-71
2023/08/25 15:57:05;;;;;;;2.93;2.63;;;29.70;34.50;;;;;;10447810;28;20247;-71
2023/08/25 16:02:08;;;;;;;2.73;2.50;;;29.80;34.50;;;;;;10448269;28;20233;-71
2023/08/25 16:07:11;;;;;;;3.80;2.67;;;29.80;34.30;;;;;;10448484;28;20229;-71
2023/08/25 16:12:16;;;;;;;2.83;2.67;;;29.90;34.10;;;;;;10447643;28;20229;-70
2023/08/25 16:17:19;;;;;;;3.00;2.80;;;29.90;34.10;;;;;;10447549;28;20239;-71
2023/08/25 16:22:22;;;;;;;3.03;2.83;;;29.90;34.40;;;;;;10447661;28;20320;-71
2023/08/25 16:27:27;;;;;;;3.30;3.00;;;30.00;34.10;;;;;;10447019;28;20790;-71
2023/08/25 16:32:30;;;;;;;3.20;3.00;;;30.00;34.20;;;;;;10447450;28;20224;-71
2023/08/25 16:37:33;;;;;;;3.03;2.83;;;30.00;34.00;;;;;;10447114;28;20907;-71
2023/08/25 16:42:38;;;;;;;3.43;3.13;;;30.00;35.00;;;;;;10447249;28;20231;-70
2023/08/25 16:47:41;;;;;;;3.57;3.27;;;29.90;33.40;;;;;;10446569;28;20225;-70
2023/08/25 16:52:44;;;;;;;3.33;3.10;;;29.80;33.70;;;;;;10446247;28;20721;-70
2023/08/25 16:57:52;;;;;;;3.23;3.00;;;29.70;33.70;;;;;;10445403;28;20294;-70
2023/08/25 17:02:55;;;;;;;3.30;3.00;;;29.60;33.80;;;;;;10446309;28;20646;-71
2023/08/25 17:07:59;;;;;;;3.53;3.10;;;29.60;33.80;;;;;;10445901;28;20253;-70
2023/08/25 17:13:07;;;;;;;3.50;3.10;;;29.60;33.90;;;;;;10445790;28;20754;-71
2023/08/25 17:18:10;;;;;;;3.63;3.20;;;29.60;34.10;;;;;;10445021;28;20233;-71
2023/08/25 17:23:14;;;;;;;3.70;3.40;;;29.50;33.70;;;;;;10445718;28;20237;-71
2023/08/25 17:28:18;;;;;;;3.50;3.20;;;29.50;33.70;;;;;;10445800;28;20239;-70
2023/08/25 17:33:21;;;;;;;3.30;2.97;;;29.30;33.90;;;;;;10445227;28;20414;-71
2023/08/25 17:38:24;;;;;;;3.43;3.10;;;29.30;34.00;;;;;;10444994;28;20795;-70
2023/08/25 17:43:29;;;;;;;3.73;3.43;;;29.20;34.30;;;;;;10444862;28;20739;-71
2023/08/25 17:48:33;;;;;;;3.30;3.10;;;29.20;34.40;;;;;;10444766;28;20592;-71
2023/08/25 17:53:36;;;;;;;3.33;3.07;;;29.20;34.40;;;;;;10444643;28;20236;-70
2023/08/25 17:58:41;;;;;;;3.47;3.27;;;29.10;34.50;;;;;;10444141;28;20229;-71
2023/08/25 18:03:44;;;;;;;4.23;3.30;;;29.10;34.70;;;;;;10444293;28;20236;-71
2023/08/25 18:08:47;;;;;;;3.67;3.37;;;29.00;34.30;;;;;;10446188;28;20224;-70
2023/08/25 18:13:54;;;;;;;4.33;3.50;;;28.90;34.60;;;;;;10452805;28;20221;-71
2023/08/25 18:18:57;;;;;;;3.47;3.17;;;28.90;34.90;;;;;;10452185;28;20308;-71
2023/08/25 18:24:01;;;;;;;3.90;3.50;;;28.80;34.80;;;;;;10452188;28;20742;-71
2023/08/25 18:29:06;;;;;;;4.47;3.80;;;28.70;35.00;;;;;;10452163;28;20324;-71
2023/08/25 18:34:09;;;;;;;4.03;3.73;;;28.60;35.20;;;;;;10451565;28;20228;-70
2023/08/25 18:39:12;;;;;;;4.40;4.00;;;28.50;34.90;;;;;;10451243;28;20236;-71
2023/08/25 18:44:18;;;;;;;3.93;3.63;;;28.40;35.20;;;;;;10451668;28;20228;-70
2023/08/25 18:49:22;;;;;;;3.90;3.60;;;28.30;35.80;;;;;;10451018;28;20228;-71
2023/08/25 18:54:26;;;;;;;3.90;3.50;;;28.20;35.50;;;;;;10450661;28;20233;-71
2023/08/25 18:59:30;;;;;;;4.00;3.70;;;28.20;35.70;;;;;;10450692;28;20761;-71
2023/08/25 19:04:34;;;;;;;4.93;3.57;;;28.20;35.90;;;;;;10450704;28;20228;-71
2023/08/25 19:09:38;;;;;;;3.97;3.63;;;28.20;36.20;;;;;;10450580;28;20275;-71
2023/08/25 19:14:43;;;;;;;4.00;3.53;;;28.20;36.00;;;;;;10450205;28;20229;-71
2023/08/25 19:19:46;;;;;;;4.27;3.87;;;28.20;35.90;;;;;;10449221;28;20239;-71
2023/08/25 19:24:49;;;;;;;4.13;3.80;;;28.10;35.80;;;;;;10450039;28;20221;-71
2023/08/25 19:29:56;;;;;;;4.23;3.90;;;28.10;35.90;;;;;;10449623;28;20356;-71
2023/08/25 19:35:03;;;;;;;4.20;3.80;;;28.00;36.80;;;;;;10449351;28;20229;-71
2023/08/25 19:40:15;;;;;;;4.33;3.97;;;27.80;35.80;;;;;;10449203;28;20324;-70
2023/08/25 19:45:20;;;;;;;4.10;3.80;;;27.60;36.20;;;;;;10448810;28;20340;-71
2023/08/25 19:50:23;;;;;;;4.50;4.10;;;27.50;36.30;;;;;;10448914;28;20306;-70
2023/08/25 19:55:26;;;;;;;4.27;3.87;;;27.30;36.20;;;;;;10448399;28;21059;-71
2023/08/25 20:00:31;;;;;;;4.50;4.20;;;27.20;36.40;;;;;;10448340;28;20235;-71
2023/08/25 20:05:38;;;;;;;4.50;4.10;;;27.00;37.00;;;;;;10448114;28;20229;-70
2023/08/25 20:10:41;;;;;;;4.50;4.10;;;26.90;37.40;;;;;;10447922;28;20231;-70
2023/08/25 20:15:46;;;;;;;4.80;4.10;;;26.80;37.00;;;;;;10447619;28;20225;-71
2023/08/25 20:20:49;;;;;;;4.43;4.13;;;26.70;37.40;;;;;;10447171;28;20228;-70
2023/08/25 20:25:53;;;;;;;4.60;4.20;;;26.50;37.50;;;;;;10447551;28;20233;-71
2023/08/25 20:30:58;;;;;;;4.10;3.80;;;26.30;37.60;;;;;;10446967;28;20264;-71
2023/08/25 20:36:02;;;;;;;5.63;4.33;;;26.20;38.00;;;;;;10445759;28;20224;-70
2023/08/25 20:41:08;;;;;;;5.43;4.10;;;26.20;38.00;;;;;;10446443;28;20239;-71
2023/08/25 20:46:14;;;;;;;4.00;3.70;;;26.10;38.30;;;;;;10446113;28;20236;-70
2023/08/25 20:51:21;;;;;;;5.87;4.23;;;26.20;38.90;;;;;;10446287;28;20237;-70
2023/08/25 20:56:24;;;;;;;4.33;4.03;;;26.20;38.70;;;;;;10446153;28;20266;-71
2023/08/25 21:01:29;;;;;;;4.10;3.80;;;26.30;38.60;;;;;;10445215;28;20232;-71
2023/08/25 21:06:33;;;;;;;4.80;4.40;;;26.30;38.60;;;;;;10445487;28;20241;-71
2023/08/25 21:11:36;;;;;;;4.37;3.97;;;26.20;38.30;;;;;;10445354;28;20263;-70
2023/08/25 21:16:40;;;;;;;5.87;4.33;;;26.10;38.40;;;;;;10445216;28;20307;-70
2023/08/25 21:21:44;;;;;;;4.70;4.30;;;26.00;38.80;;;;;;10445237;28;20235;-70
2023/08/25 21:26:47;;;;;;;5.00;4.50;;;25.90;38.40;;;;;;10444786;28;20243;-70
2023/08/25 21:31:52;;;;;;;5.20;4.80;;;25.80;38.90;;;;;;10444830;28;20239;-71
2023/08/25 21:36:55;;;;;;;5.03;4.57;;;25.80;39.80;;;;;;10444514;28;20232;-71
2023/08/25 21:41:58;;;;;;;4.60;4.20;;;25.70;40.00;;;;;;10444297;28;20239;-71
2023/08/25 21:47:03;;;;;;;5.53;4.87;;;25.70;39.80;;;;;;10443902;28;20228;-71
2023/08/25 21:52:06;;;;;;;5.23;4.73;;;25.60;41.00;;;;;;10443458;28;20221;-71
2023/08/25 21:57:11;;;;;;;5.23;4.83;;;25.50;40.60;;;;;;10444072;28;20236;-71
2023/08/25 22:02:15;;;;;;;5.20;4.70;;;25.50;40.80;;;;;;10443513;28;20237;-71
2023/08/25 22:07:18;;;;;;;5.40;4.90;;;25.40;41.20;;;;;;10443702;28;20237;-71
2023/08/25 22:12:22;;;;;;;5.77;5.27;;;25.40;41.20;;;;;;10443801;28;20316;-71
2023/08/25 22:17:26;;;;;;;5.60;5.10;;;25.40;41.20;;;;;;10417973;28;20228;-71
2023/08/25 22:22:30;;;;;;;5.00;4.60;;;25.40;41.30;;;;;;10443701;28;20612;-71
2023/08/25 22:27:33;;;;;;;5.53;5.03;;;25.50;41.20;;;;;;10443364;28;20232;-71
2023/08/25 22:32:37;;;;;;;5.93;5.43;;;25.40;41.20;;;;;;10402949;28;20236;-71
2023/08/25 22:37:43;;;;;;;5.30;4.90;;;25.50;41.60;;;;;;10442041;28;20228;-71
2023/08/25 22:42:46;;;;;;;6.83;5.53;;;25.40;41.20;;;;;;10443251;28;20228;-71
2023/08/25 22:47:51;;;;;;;5.87;5.37;;;25.40;41.70;;;;;;10442712;28;20628;-71
2023/08/25 22:52:55;;;;;;;5.77;5.37;;;25.40;42.40;;;;;;10410432;28;20225;-71
2023/08/25 22:57:58;;;;;;;5.60;5.20;;;25.30;41.50;;;;;;10447537;28;20256;-70
2023/08/25 23:03:03;;;;;;;5.43;5.03;;;25.20;41.80;;;;;;10450207;28;20825;-71
2023/08/25 23:08:07;;;;;;;5.57;5.07;;;25.10;42.40;;;;;;10450059;28;20239;-71
2023/08/25 23:13:10;;;;;;;5.40;5.00;;;25.10;42.20;;;;;;10449993;28;20237;-71
2023/08/25 23:18:15;;;;;;;4.87;4.47;;;25.00;42.10;;;;;;10449512;28;20225;-71
2023/08/25 23:23:18;;;;;;;6.03;5.03;;;24.90;42.20;;;;;;10449407;28;20253;-71
2023/08/25 23:28:22;;;;;;;7.03;5.50;;;24.90;42.40;;;;;;10448975;28;20724;-71
2023/08/25 23:33:26;;;;;;;6.47;5.40;;;24.90;43.20;;;;;;10448912;28;20229;-71
2023/08/25 23:38:29;;;;;;;5.87;5.37;;;24.80;43.90;;;;;;10448882;28;20256;-71
2023/08/25 23:43:33;;;;;;;5.67;5.20;;;24.80;43.30;;;;;;10448713;28;20704;-71
2023/08/25 23:48:37;;;;;;;5.50;5.00;;;24.70;43.30;;;;;;10448348;28;20278;-71
2023/08/25 23:53:40;;;;;;;5.27;4.87;;;24.70;44.00;;;;;;10448088;28;20720;-71
2023/08/25 23:58:43;;;;;;;5.37;5.00;;;24.80;43.40;;;;;;10448242;28;20231;-71
